| time (UTC) | temp F | wind direction | speed MPH | gust MPH | rain 1hr in | rain 24hr in | rain mn in | humidity % | barometer mb |
| 20260502200008 | 62 | 250 | 3.0 | 14.0 | 0.00 | 0.00 | 0.00 | 21 | 1015.6 |
| 20260502194507 | 62 | 192 | 4.0 | 12.0 | 0.00 | 0.00 | 0.00 | 18 | 1015.8 |
| 20260502193010 | 61 | 214 | 2.0 | 13.0 | 0.00 | 0.00 | 0.00 | 21 | 1016.1 |
| 20260502191522 | 61 | 279 | 4.0 | 12.0 | 0.00 | 0.00 | 0.00 | 20 | 1016.3 |
| 20260502190023 | 60 | 233 | 4.0 | 14.0 | 0.00 | 0.00 | 0.00 | 20 | 1016.5 |
| 20260502184504 | 60 | 250 | 4.0 | 10.0 | 0.00 | 0.00 | 0.00 | 19 | 1016.6 |
| 20260502183010 | 59 | 186 | 2.0 | 13.0 | 0.00 | 0.00 | 0.00 | 23 | 1016.8 |
| 20260502181513 | 59 | 211 | 1.0 | 12.0 | 0.00 | 0.00 | 0.00 | 20 | 1017.0 |
| 20260502163024 | 55 | 256 | 1.0 | 16.0 | 0.00 | 0.00 | 0.00 | 25 | 1018.7 |
| 20260502161526 | 54 | 286 | 6.0 | 11.0 | 0.00 | 0.00 | 0.00 | 24 | 1018.9 |
| 20260502151528 | 52 | 240 | 5.0 | 13.0 | 0.00 | 0.00 | 0.00 | 27 | 1019.4 |
| 20260502123031 | 38 | 263 | 1.0 | 8.0 | 0.00 | 0.00 | 0.00 | 49 | 1019.6 |
| 20260502121508 | 37 | 262 | 1.0 | 6.0 | 0.00 | 0.00 | 0.00 | 49 | 1019.5 |
| 20260502114507 | 35 | 256 | 1.0 | 5.0 | 0.00 | 0.00 | 0.00 | 50 | 1019.4 |
| 20260502113007 | 35 | 238 | 0.0 | 2.0 | 0.00 | 0.00 | 0.00 | 50 | 1019.3 |
| 20260502111512 | 35 | 240 | 0.0 | 3.0 | 0.00 | 0.00 | 0.00 | 50 | 1019.3 |
| 20260502110004 | 35 | 273 | 1.0 | 6.0 | 0.00 | 0.00 | 0.00 | 49 | 1019.3 |
| 20260502104503 | 35 | 216 | 0.0 | 4.0 | 0.00 | 0.00 | 0.00 | 49 | 1019.3 |
| 20260502103016 | 35 | 247 | 0.0 | 2.0 | 0.00 | 0.00 | 0.00 | 48 | 1019.4 |
| 20260502101512 | 36 | 247 | 0.0 | 2.0 | 0.00 | 0.00 | 0.00 | 47 | 1019.3 |
| 20260502091510 | 35 | 248 | 0.0 | 4.0 | 0.00 | 0.00 | 0.00 | 50 | 1019.5 |
| 20260502071524 | 37 | 262 | 0.0 | 0.0 | 0.00 | 0.00 | 0.00 | 47 | 1019.4 |
| 20260502070008 | 37 | 263 | 0.0 | 2.0 | 0.00 | 0.00 | 0.00 | 46 | 1019.5 |
| 20260502064531 | 37 | 263 | 0.0 | 4.0 | 0.00 | 0.00 | 0.00 | 46 | 1019.6 |
| 20260502063017 | 37 | 343 | 0.0 | 0.0 | 0.00 | 0.00 | 0.00 | 46 | 1019.7 |
| 20260502061522 | 37 | 343 | 0.0 | 0.0 | 0.00 | 0.00 | 0.00 | 45 | 1019.7 |
| 20260502060028 | 37 | 343 | 0.0 | 0.0 | 0.00 | 0.00 | 0.00 | 45 | 1019.6 |
| 20260502054529 | 38 | 343 | 0.0 | 0.0 | 0.00 | 0.00 | 0.00 | 44 | 1019.6 |
| 20260502053014 | 38 | 343 | 0.0 | 0.0 | 0.00 | 0.00 | 0.00 | 43 | 1019.6 |
| 20260502051517 | 38 | 343 | 0.0 | 0.0 | 0.00 | 0.00 | 0.00 | 43 | 1019.5 |
| 20260502050025 | 39 | 343 | 0.0 | 0.0 | 0.00 | 0.00 | 0.00 | 41 | 1019.5 |
| 20260502044534 | 39 | 343 | 0.0 | 1.0 | 0.00 | 0.00 | 0.00 | 41 | 1019.5 |
| 20260502043030 | 40 | 343 | 0.0 | 1.0 | 0.00 | 0.00 | 0.00 | 39 | 1019.5 |
| 20260502041512 | 41 | 343 | 0.0 | 1.0 | 0.00 | 0.00 | 0.00 | 38 | 1019.6 |
| 20260502040037 | 41 | 343 | 0.0 | 0.0 | 0.00 | 0.00 | 0.00 | 37 | 1019.6 |
| 20260502034526 | 42 | 343 | 0.0 | 0.0 | 0.00 | 0.00 | 0.00 | 35 | 1019.5 |
| 20260502033023 | 42 | 343 | 0.0 | 0.0 | 0.00 | 0.00 | 0.00 | 35 | 1019.6 |
| 20260502031509 | 43 | 343 | 0.0 | 0.0 | 0.00 | 0.00 | 0.00 | 34 | 1019.6 |
| 20260502030008 | 43 | 343 | 0.0 | 0.0 | 0.00 | 0.00 | 0.00 | 33 | 1019.6 |
| 20260502024514 | 44 | 343 | 0.0 | 0.0 | 0.00 | 0.00 | 0.00 | 33 | 1019.5 |
| 20260502023003 | 45 | 343 | 0.0 | 0.0 | 0.00 | 0.00 | 0.00 | 31 | 1019.4 |
| 20260502021506 | 45 | 343 | 0.0 | 0.0 | 0.00 | 0.00 | 0.00 | 30 | 1019.4 |
| 20260502020010 | 46 | 343 | 0.0 | 0.0 | 0.00 | 0.00 | 0.00 | 28 | 1019.3 |
| 20260502014529 | 47 | 343 | 0.0 | 1.0 | 0.00 | 0.00 | 0.00 | 27 | 1019.2 |
| 20260502013014 | 47 | 343 | 0.0 | 3.0 | 0.00 | 0.00 | 0.00 | 26 | 1019.1 |
| 20260502011504 | 48 | 360 | 2.0 | 6.0 | 0.00 | 0.00 | 0.00 | 24 | 1018.8 |
| 20260502010005 | 48 | 360 | 1.0 | 4.0 | 0.00 | 0.00 | 0.00 | 25 | 1018.8 |
| 20260502004521 | 48 | 349 | 3.0 | 9.0 | 0.00 | 0.00 | 0.00 | 23 | 1018.5 |
| 20260502003013 | 49 | 343 | 2.0 | 11.0 | 0.00 | 0.00 | 0.00 | 23 | 1018.4 |
| 20260502001527 | 50 | 355 | 1.0 | 6.0 | 0.00 | 0.00 | 0.00 | 22 | 1018.3 |
| 20260502000004 | 50 | 346 | 3.0 | 8.0 | 0.00 | 0.00 | 0.00 | 22 | 1018.2 |
| 20260501234509 | 50 | 342 | 3.0 | 10.0 | 0.00 | 0.00 | 0.00 | 22 | 1018.3 |
| 20260501233011 | 51 | 304 | 3.0 | 10.0 | 0.00 | 0.00 | 0.00 | 22 | 1018.2 |
| 20260501231516 | 51 | 332 | 4.0 | 13.0 | 0.00 | 0.00 | 0.00 | 22 | 1018.2 |
| 20260501230027 | 51 | 61 | 2.0 | 9.0 | 0.00 | 0.00 | 0.00 | 23 | 1018.1 |
| 20260501224520 | 51 | 332 | 3.0 | 11.0 | 0.00 | 0.00 | 0.00 | 20 | 1018.2 |
| 20260501223017 | 52 | 345 | 2.0 | 9.0 | 0.00 | 0.00 | 0.00 | 22 | 1018.0 |
| 20260501221515 | 52 | 355 | 2.0 | 12.0 | 0.00 | 0.00 | 0.00 | 21 | 1018.1 |
| 20260501220026 | 52 | 341 | 2.0 | 14.0 | 0.00 | 0.00 | 0.00 | 19 | 1018.0 |
| 20260501214525 | 52 | 314 | 4.0 | 12.0 | 0.00 | 0.00 | 0.00 | 20 | 1018.0 |
| 20260501213022 | 53 | 349 | 4.0 | 11.0 | 0.00 | 0.00 | 0.00 | 19 | 1018.0 |
| 20260501211514 | 53 | 269 | 2.0 | 10.0 | 0.00 | 0.00 | 0.00 | 23 | 1018.0 |
| 20260501210029 | 52 | 19 | 3.0 | 11.0 | 0.00 | 0.00 | 0.00 | 24 | 1018.1 |
| 20260501204521 | 51 | 298 | 3.0 | 15.0 | 0.00 | 0.00 | 0.00 | 22 | 1018.2 |
| 20260501203033 | 51 | 17 | 6.0 | 14.0 | 0.00 | 0.00 | 0.00 | 22 | 1018.3 |
| 20260501201525 | 50 | 346 | 5.0 | 12.0 | 0.00 | 0.00 | 0.00 | 22 | 1018.5 |